Time;durP1;ratioP1;P1;durP2;ratioP2;P2;SDS_P1;SDS_P2;PMS_P1;PMS_P2;Temp;Humidity;BMP_temperature;BMP_pressure;BME280_temperature;BME280_humidity;BME280_pressure;Samples;Min_cycle;Max_cycle;Signal;HPM_P1;HPM_P2
2022/05/26 00:01:04;;;;;;;3.00;1.60;;;16.50;34.50;;;;;;5044194;28;20383;-82
2022/05/26 00:03:34;;;;;;;3.90;1.70;;;16.60;34.40;;;;;;5044965;28;20399;-83
2022/05/26 00:06:01;;;;;;;5.25;2.10;;;16.70;34.40;;;;;;5044923;28;20409;-81
2022/05/26 00:08:27;;;;;;;4.03;1.70;;;16.60;34.40;;;;;;5045902;28;20927;-82
2022/05/26 00:10:55;;;;;;;7.90;1.70;;;16.60;34.40;;;;;;5044095;28;20496;-82
2022/05/26 00:13:21;;;;;;;8.25;2.03;;;16.60;34.40;;;;;;5040026;28;20383;-86
2022/05/26 00:15:47;;;;;;;6.70;1.90;;;16.60;34.50;;;;;;5041790;28;20383;-82
2022/05/26 00:18:13;;;;;;;3.10;1.60;;;16.60;34.60;;;;;;5039676;28;20375;-82
2022/05/26 00:20:39;;;;;;;3.35;2.08;;;16.60;34.90;;;;;;5041271;28;20748;-82
2022/05/26 00:23:04;;;;;;;5.67;1.90;;;16.50;35.00;;;;;;5042002;28;20403;-82
2022/05/26 00:25:30;;;;;;;4.68;2.00;;;16.50;35.30;;;;;;5041940;28;20387;-82
2022/05/26 00:27:56;;;;;;;3.67;1.80;;;16.50;35.30;;;;;;5042984;28;20386;-81
2022/05/26 00:30:22;;;;;;;4.90;1.90;;;16.50;35.40;;;;;;5045204;28;20391;-83
2022/05/26 00:32:48;;;;;;;3.40;1.50;;;16.50;35.90;;;;;;5045156;28;20827;-82
2022/05/26 00:35:15;;;;;;;3.88;1.70;;;16.60;35.30;;;;;;5041223;28;20430;-81
2022/05/26 00:37:42;;;;;;;3.75;1.88;;;16.50;35.40;;;;;;5042268;28;20391;-82
2022/05/26 00:40:08;;;;;;;5.20;1.90;;;16.60;35.00;;;;;;5045559;28;20507;-81
2022/05/26 00:42:34;;;;;;;3.53;1.37;;;16.60;35.30;;;;;;5045429;28;20469;-83
2022/05/26 00:44:59;;;;;;;2.20;1.60;;;16.50;35.50;;;;;;5044832;28;20386;-83
2022/05/26 00:47:28;;;;;;;4.50;1.50;;;16.60;35.20;;;;;;5046693;28;20904;-80
2022/05/26 00:49:59;;;;;;;8.18;1.60;;;16.50;35.40;;;;;;5045285;28;20772;-82
2022/05/26 00:52:32;;;;;;;5.50;1.70;;;16.50;35.60;;;;;;5046521;28;20399;-83
2022/05/26 00:55:03;;;;;;;3.75;1.75;;;16.60;35.60;;;;;;5050242;28;20395;-85
2022/05/26 00:57:35;;;;;;;6.60;1.52;;;16.50;36.00;;;;;;5053047;28;20419;-86
2022/05/26 01:00:05;;;;;;;2.92;1.50;;;16.50;36.20;;;;;;5049615;28;20387;-87
2022/05/26 01:02:35;;;;;;;4.00;1.77;;;16.50;36.30;;;;;;5049809;28;20387;-84
2022/05/26 01:05:19;;;;;;;2.05;1.60;;;16.50;36.50;;;;;;5052509;28;20383;-82
2022/05/26 01:07:45;;;;;;;3.35;1.60;;;16.50;36.90;;;;;;5051741;28;20414;-82
2022/05/26 01:10:13;;;;;;;3.60;1.70;;;16.60;36.90;;;;;;5053318;28;20387;-84
2022/05/26 01:12:39;;;;;;;4.47;1.60;;;16.50;37.20;;;;;;5053533;28;20486;-80
2022/05/26 01:15:09;;;;;;;5.15;1.98;;;16.60;37.60;;;;;;5054533;28;20397;-85
2022/05/26 01:17:47;;;;;;;3.97;1.90;;;16.60;37.70;;;;;;5053428;28;20390;-82
2022/05/26 01:20:27;;;;;;;3.60;1.58;;;16.50;38.40;;;;;;5051277;28;20383;-81
2022/05/26 01:23:32;;;;;;;6.72;1.92;;;16.50;38.50;;;;;;5050470;28;20402;-79
2022/05/26 01:26:19;;;;;;;5.80;1.93;;;16.50;38.40;;;;;;5049984;28;20469;-81
2022/05/26 01:29:09;;;;;;;8.30;2.00;;;16.40;39.10;;;;;;5051692;28;20420;-83
2022/05/26 01:31:53;;;;;;;4.70;2.30;;;16.40;39.30;;;;;;5049615;28;20398;-85
2022/05/26 01:34:59;;;;;;;4.75;1.70;;;16.50;39.20;;;;;;5049856;28;20437;-83
2022/05/26 01:37:59;;;;;;;4.50;2.10;;;16.40;39.50;;;;;;5050565;28;20385;-82
2022/05/26 01:40:57;;;;;;;6.15;2.20;;;16.40;39.60;;;;;;5049658;28;20470;-81
2022/05/26 01:43:41;;;;;;;4.60;2.00;;;16.30;41.50;;;;;;5049804;28;20386;-83
2022/05/26 01:46:07;;;;;;;3.45;2.00;;;16.30;41.00;;;;;;5049106;28;20450;-80
2022/05/26 01:48:42;;;;;;;3.55;2.05;;;16.40;40.80;;;;;;5048901;28;20387;-80
2022/05/26 01:51:34;;;;;;;3.67;2.40;;;16.30;41.70;;;;;;5049970;28;20403;-82
2022/05/26 01:54:18;;;;;;;4.78;2.35;;;16.40;41.70;;;;;;5050715;28;20403;-83
2022/05/26 01:57:06;;;;;;;3.45;2.35;;;16.30;42.90;;;;;;5051276;28;20788;-83
2022/05/26 01:59:40;;;;;;;3.75;2.30;;;16.30;43.20;;;;;;5050137;28;20383;-82
2022/05/26 02:02:12;;;;;;;9.00;2.60;;;16.20;44.10;;;;;;5050041;28;20379;-80
2022/05/26 02:04:52;;;;;;;7.32;2.70;;;16.20;44.20;;;;;;5051035;28;20383;-82
2022/05/26 02:07:34;;;;;;;4.47;2.40;;;16.20;43.90;;;;;;5050085;28;20434;-82
2022/05/26 02:10:05;;;;;;;6.38;2.50;;;16.20;44.10;;;;;;5048585;28;20391;-82
2022/05/26 02:12:41;;;;;;;5.70;2.50;;;16.10;44.80;;;;;;5049217;28;20430;-81
2022/05/26 02:15:24;;;;;;;3.05;2.00;;;16.20;44.60;;;;;;5050650;28;20459;-85
2022/05/26 02:18:05;;;;;;;3.53;2.10;;;16.10;45.70;;;;;;5052498;28;20390;-82
2022/05/26 02:20:43;;;;;;;8.35;2.40;;;16.10;45.40;;;;;;5051730;28;20443;-83
2022/05/26 02:23:19;;;;;;;5.82;2.50;;;16.10;46.40;;;;;;5051727;28;20356;-85
2022/05/26 02:25:45;;;;;;;4.32;2.45;;;16.10;46.00;;;;;;5052286;28;20379;-82
2022/05/26 02:28:11;;;;;;;5.33;2.60;;;16.10;46.60;;;;;;5051598;28;20390;-82
2022/05/26 02:30:40;;;;;;;5.18;2.35;;;16.10;46.90;;;;;;5050209;28;20391;-82
2022/05/26 02:33:09;;;;;;;5.10;2.80;;;16.10;47.40;;;;;;5051183;28;20410;-81
2022/05/26 02:35:44;;;;;;;5.00;2.58;;;16.10;47.40;;;;;;5051318;28;20386;-83
2022/05/26 02:38:19;;;;;;;4.00;2.60;;;16.00;48.30;;;;;;5052596;28;20476;-84
2022/05/26 02:40:45;;;;;;;4.20;2.35;;;16.00;48.50;;;;;;5052646;28;20391;-85
2022/05/26 02:43:15;;;;;;;4.00;2.60;;;16.00;48.50;;;;;;5051549;28;20417;-85
2022/05/26 02:46:09;;;;;;;3.00;2.60;;;16.00;48.60;;;;;;5053212;28;20379;-83
2022/05/26 02:48:50;;;;;;;5.45;2.47;;;16.00;49.10;;;;;;5052713;28;20387;-82
2022/05/26 02:51:30;;;;;;;3.75;2.42;;;16.00;48.60;;;;;;5054684;28;20411;-82
2022/05/26 02:54:33;;;;;;;3.90;2.50;;;16.00;49.10;;;;;;5055489;28;20469;-82
2022/05/26 02:57:34;;;;;;;5.80;2.70;;;16.00;49.60;;;;;;5056989;28;20418;-83
2022/05/26 03:00:05;;;;;;;3.90;2.70;;;15.90;50.50;;;;;;5059376;28;20386;-84
2022/05/26 03:02:39;;;;;;;3.75;2.72;;;15.90;51.00;;;;;;5059187;28;20390;-82
2022/05/26 03:05:18;;;;;;;4.93;2.85;;;15.80;51.30;;;;;;5058383;28;20484;-82
2022/05/26 03:07:48;;;;;;;6.40;3.25;;;15.70;52.30;;;;;;5056054;28;20736;-84
2022/05/26 03:10:15;;;;;;;5.97;3.03;;;15.80;51.90;;;;;;5053302;28;20402;-87
2022/05/26 03:12:40;;;;;;;5.70;3.38;;;15.90;50.70;;;;;;5055198;28;20413;-83
2022/05/26 03:15:08;;;;;;;3.85;2.90;;;16.00;50.40;;;;;;5055040;28;20911;-83
2022/05/26 03:17:34;;;;;;;3.97;2.70;;;15.90;50.20;;;;;;5055719;28;20376;-83
2022/05/26 03:20:00;;;;;;;6.18;2.70;;;16.00;50.00;;;;;;5055968;28;20451;-82
2022/05/26 03:22:26;;;;;;;6.03;3.00;;;16.00;50.50;;;;;;5054982;28;20402;-84
2022/05/26 03:24:52;;;;;;;2.70;2.40;;;15.90;50.90;;;;;;5055838;28;20393;-83
2022/05/26 03:27:18;;;;;;;3.55;2.53;;;16.00;50.80;;;;;;5055258;28;20409;-83
2022/05/26 03:29:43;;;;;;;4.75;2.88;;;16.00;50.30;;;;;;5054577;28;20383;-82
2022/05/26 03:32:09;;;;;;;9.23;2.90;;;16.00;50.50;;;;;;5052729;28;20422;-82
2022/05/26 03:42:50;;;;;;;8.55;2.55;;;16.00;49.60;;;;;;5051735;28;20390;-82
2022/05/26 03:45:22;;;;;;;5.50;2.60;;;16.00;50.30;;;;;;5051278;28;20852;-81
2022/05/26 03:47:49;;;;;;;5.15;2.80;;;16.00;50.50;;;;;;5053034;28;20379;-81
2022/05/26 03:50:15;;;;;;;3.10;2.67;;;16.00;52.50;;;;;;5052335;28;20387;-83
2022/05/26 03:52:40;;;;;;;8.10;3.45;;;15.90;54.80;;;;;;5053264;28;20417;-82
2022/05/26 03:55:07;;;;;;;6.70;3.70;;;15.90;55.90;;;;;;5054886;28;20419;-82
2022/05/26 03:57:32;;;;;;;7.70;3.75;;;15.80;60.60;;;;;;5058618;28;20394;-83
2022/05/26 03:59:58;;;;;;;10.38;3.90;;;15.60;66.60;;;;;;5058522;28;20712;-84
2022/05/26 04:02:25;;;;;;;9.35;4.22;;;15.40;71.10;;;;;;5056471;28;20390;-81
2022/05/26 04:04:51;;;;;;;7.22;4.32;;;15.30;74.70;;;;;;5053527;28;20407;-82
2022/05/26 04:07:16;;;;;;;11.80;5.65;;;15.30;75.10;;;;;;5052421;28;20399;-84
2022/05/26 04:09:42;;;;;;;11.93;5.50;;;15.10;79.20;;;;;;5052493;28;20390;-80
2022/05/26 04:12:09;;;;;;;8.80;5.30;;;15.10;81.40;;;;;;5050383;28;20460;-80
2022/05/26 04:14:35;;;;;;;11.15;5.00;;;15.00;83.10;;;;;;5050683;28;20406;-81
2022/05/26 04:17:02;;;;;;;10.90;5.00;;;15.00;82.90;;;;;;5051386;28;20929;-81
2022/05/26 04:19:28;;;;;;;10.80;5.55;;;15.00;83.90;;;;;;5056323;28;20374;-83
2022/05/26 04:24:38;;;;;;;12.63;5.93;;;15.10;83.30;;;;;;5055552;28;20398;-83
2022/05/26 04:27:05;;;;;;;10.53;5.20;;;15.00;88.60;;;;;;5053542;28;20387;-80
2022/05/26 04:29:32;;;;;;;13.10;6.20;;;15.00;87.30;;;;;;5051817;28;20394;-84
2022/05/26 04:31:58;;;;;;;10.77;5.60;;;14.90;89.40;;;;;;5050548;28;20407;-80
2022/05/26 04:34:24;;;;;;;11.27;6.30;;;15.00;88.40;;;;;;5052138;28;20429;-81
2022/05/26 04:36:50;;;;;;;14.68;5.97;;;15.10;83.70;;;;;;5057445;28;20387;-83
2022/05/26 04:39:16;;;;;;;21.45;6.50;;;15.10;84.50;;;;;;5056644;28;20382;-81
2022/05/26 04:41:43;;;;;;;12.88;6.20;;;15.20;83.20;;;;;;5056799;28;20383;-84
2022/05/26 04:44:10;;;;;;;12.95;6.18;;;15.20;81.70;;;;;;5054290;28;20402;-80
2022/05/26 04:46:36;;;;;;;14.27;6.10;;;15.30;80.40;;;;;;5054407;28;20363;-82
2022/05/26 04:49:03;;;;;;;10.95;6.05;;;15.30;79.40;;;;;;5054661;28;20422;-83
2022/05/26 04:51:29;;;;;;;12.00;6.20;;;15.40;76.40;;;;;;5054798;28;20843;-81
2022/05/26 04:53:55;;;;;;;11.73;6.13;;;15.50;76.10;;;;;;5052198;28;20383;-81
2022/05/26 04:56:20;;;;;;;14.50;6.32;;;15.50;75.80;;;;;;5053068;28;20447;-81
2022/05/26 04:58:47;;;;;;;13.75;6.47;;;15.70;71.80;;;;;;5056926;28;20480;-82
2022/05/26 05:01:17;;;;;;;15.20;6.47;;;15.70;68.10;;;;;;5056664;28;20398;-84
2022/05/26 05:03:43;;;;;;;13.00;6.20;;;15.70;69.30;;;;;;5052085;28;20419;-79
2022/05/26 05:06:10;;;;;;;15.75;7.20;;;15.80;67.80;;;;;;5044893;28;20426;-80
2022/05/26 05:08:36;;;;;;;14.15;6.95;;;15.80;67.20;;;;;;5048435;28;20406;-79
2022/05/26 05:11:02;;;;;;;12.98;6.90;;;15.70;68.90;;;;;;5053194;28;20391;-81
2022/05/26 05:13:27;;;;;;;15.00;6.80;;;15.70;69.20;;;;;;5052966;28;20407;-80
2022/05/26 05:16:03;;;;;;;16.10;7.10;;;15.80;70.70;;;;;;5051664;28;20391;-83
2022/05/26 05:18:29;;;;;;;20.98;6.95;;;15.90;71.50;;;;;;5052731;28;20426;-82
2022/05/26 05:20:59;;;;;;;14.65;6.50;;;16.00;67.10;;;;;;5055229;28;20387;-83
2022/05/26 05:23:26;;;;;;;16.15;6.93;;;16.00;67.30;;;;;;5056889;28;20405;-83
2022/05/26 05:25:56;;;;;;;16.27;6.60;;;16.00;66.10;;;;;;5055826;28;20818;-82
2022/05/26 05:28:31;;;;;;;17.40;7.00;;;16.10;66.20;;;;;;5056197;28;20461;-82
2022/05/26 05:31:01;;;;;;;13.32;6.97;;;16.10;65.10;;;;;;5056409;28;20407;-82
2022/05/26 05:33:34;;;;;;;15.88;7.10;;;16.00;64.00;;;;;;5055969;28;20383;-83
2022/05/26 05:36:19;;;;;;;15.60;7.28;;;16.00;64.50;;;;;;5056123;28;20382;-82
2022/05/26 05:38:45;;;;;;;15.38;7.40;;;16.10;65.10;;;;;;5053887;28;20399;-79
2022/05/26 05:41:11;;;;;;;17.95;7.68;;;16.00;66.20;;;;;;5055155;28;20409;-82
2022/05/26 05:43:38;;;;;;;21.08;8.32;;;16.10;64.90;;;;;;5056155;28;20394;-82
2022/05/26 05:46:04;;;;;;;15.70;7.78;;;16.10;64.30;;;;;;5055406;28;20399;-81
2022/05/26 05:48:30;;;;;;;21.90;8.20;;;16.20;64.40;;;;;;5055880;28;20384;-82
2022/05/26 05:50:55;;;;;;;23.50;8.70;;;16.40;61.60;;;;;;5056066;28;20414;-82
2022/05/26 05:53:21;;;;;;;17.20;7.43;;;16.50;59.10;;;;;;5055821;28;20410;-82
2022/05/26 05:55:47;;;;;;;18.00;8.15;;;16.50;59.60;;;;;;5056203;28;20414;-81
2022/05/26 05:58:13;;;;;;;19.83;7.90;;;16.50;56.50;;;;;;5055716;28;20390;-82
2022/05/26 06:00:40;;;;;;;20.52;8.65;;;16.50;57.00;;;;;;5055915;28;20402;-82
2022/05/26 06:03:06;;;;;;;20.80;8.70;;;16.60;56.60;;;;;;5055999;28;20393;-83
2022/05/26 06:05:33;;;;;;;20.20;9.20;;;16.60;56.40;;;;;;5055780;28;20450;-81
2022/05/26 06:07:59;;;;;;;18.83;8.73;;;16.70;54.20;;;;;;5056036;28;20508;-83
2022/05/26 06:10:25;;;;;;;21.13;8.50;;;16.90;53.60;;;;;;5053836;28;20415;-80
2022/05/26 06:12:51;;;;;;;22.40;8.95;;;17.00;53.10;;;;;;5050390;28;20473;-80
2022/05/26 06:15:18;;;;;;;17.70;9.05;;;17.20;52.80;;;;;;5047159;28;20391;-81
2022/05/26 06:17:44;;;;;;;20.98;9.63;;;17.20;48.60;;;;;;5052446;28;20378;-79
2022/05/26 06:20:11;;;;;;;22.73;9.57;;;17.10;49.80;;;;;;5053313;28;20379;-81
2022/05/26 06:22:40;;;;;;;17.67;9.47;;;17.10;48.70;;;;;;5051526;28;20379;-82
2022/05/26 06:25:07;;;;;;;21.38;9.18;;;17.30;49.70;;;;;;5055833;28;20402;-82
2022/05/26 06:30:19;;;;;;;24.33;10.27;;;17.50;47.10;;;;;;5059633;28;20490;-82
2022/05/26 06:38:21;;;;;;;22.70;11.63;;;17.30;47.50;;;;;;5057597;28;20430;-81
2022/05/26 06:40:48;;;;;;;21.80;10.90;;;17.40;48.10;;;;;;5058304;28;20387;-79
2022/05/26 06:43:17;;;;;;;24.58;10.90;;;17.50;46.10;;;;;;5059531;28;20433;-82
2022/05/26 06:45:45;;;;;;;20.90;10.93;;;17.60;44.50;;;;;;5057966;28;20478;-82
2022/05/26 06:48:11;;;;;;;27.20;11.50;;;17.70;43.70;;;;;;5058667;28;20378;-82
2022/05/26 06:50:39;;;;;;;19.67;10.25;;;17.70;42.60;;;;;;5059116;28;20387;-82
2022/05/26 06:53:05;;;;;;;25.15;11.02;;;17.80;42.70;;;;;;5059093;28;20411;-82
2022/05/26 06:55:31;;;;;;;26.35;11.65;;;18.00;43.30;;;;;;5058016;28;20407;-80
2022/05/26 06:57:56;;;;;;;24.05;11.65;;;18.10;41.30;;;;;;5057952;28;20393;-80
2022/05/26 07:00:22;;;;;;;22.95;10.43;;;18.10;40.00;;;;;;5057446;28;20412;-80
2022/05/26 07:02:48;;;;;;;18.92;10.05;;;18.10;39.80;;;;;;5057304;28;20398;-80
2022/05/26 07:05:14;;;;;;;20.65;10.88;;;18.00;39.50;;;;;;5057493;28;20434;-80
2022/05/26 07:07:40;;;;;;;23.20;10.10;;;18.00;41.40;;;;;;5058187;28;20379;-80
2022/05/26 07:10:06;;;;;;;19.63;10.43;;;18.00;40.90;;;;;;5057783;28;20395;-79
2022/05/26 07:12:32;;;;;;;22.97;10.23;;;18.20;40.10;;;;;;5057419;28;20502;-79
2022/05/26 07:14:58;;;;;;;20.97;10.30;;;18.40;39.70;;;;;;5057966;28;20406;-79
2022/05/26 07:17:24;;;;;;;22.67;9.70;;;18.40;38.10;;;;;;5057954;28;20419;-80
2022/05/26 07:19:50;;;;;;;17.73;10.77;;;18.40;37.60;;;;;;5057671;28;20451;-79
2022/05/26 07:22:15;;;;;;;19.13;10.10;;;18.30;38.00;;;;;;5057472;28;20370;-80
2022/05/26 07:24:41;;;;;;;16.85;10.15;;;18.40;38.20;;;;;;5058564;28;20392;-78
2022/05/26 07:27:08;;;;;;;15.85;9.35;;;18.50;38.00;;;;;;5058317;28;20395;-79
2022/05/26 07:29:34;;;;;;;21.63;9.40;;;18.50;37.20;;;;;;5058256;28;20438;-79
2022/05/26 07:32:00;;;;;;;23.48;10.50;;;18.40;36.50;;;;;;5057138;28;20407;-78
2022/05/26 07:34:26;;;;;;;20.08;9.93;;;18.20;37.80;;;;;;5057372;28;20407;-78
2022/05/26 07:42:24;;;;;;;17.45;9.85;;;18.10;38.10;;;;;;5048523;28;20385;-77
2022/05/26 07:44:54;;;;;;;22.17;9.73;;;18.20;36.90;;;;;;5045195;28;20395;-78
2022/05/26 07:47:20;;;;;;;21.25;9.30;;;18.60;37.30;;;;;;5049412;28;20446;-78
2022/05/26 07:49:49;;;;;;;15.45;8.30;;;18.90;34.20;;;;;;5055301;28;20402;-80
2022/05/26 07:52:16;;;;;;;18.08;8.70;;;19.00;32.20;;;;;;5052375;28;20403;-78
2022/05/26 07:54:42;;;;;;;16.80;8.50;;;18.80;32.80;;;;;;5054134;28;20462;-77
2022/05/26 07:57:22;;;;;;;21.42;9.20;;;18.80;32.30;;;;;;5055785;28;20391;-78
2022/05/26 07:59:50;;;;;;;18.35;8.68;;;18.40;33.80;;;;;;5055434;28;20362;-79
2022/05/26 08:02:16;;;;;;;21.80;8.88;;;18.20;35.30;;;;;;5055508;28;20455;-77
2022/05/26 08:04:41;;;;;;;18.55;9.48;;;18.20;36.00;;;;;;5055033;28;20381;-77
2022/05/26 08:07:07;;;;;;;19.38;8.70;;;18.00;36.40;;;;;;5054558;28;20395;-78
2022/05/26 08:09:33;;;;;;;17.02;9.25;;;18.10;36.20;;;;;;5055023;28;20378;-78
2022/05/26 08:11:58;;;;;;;20.73;9.00;;;18.10;34.70;;;;;;5053002;28;20482;-78
2022/05/26 08:14:25;;;;;;;16.30;8.50;;;18.10;35.50;;;;;;5046890;28;20391;-78
2022/05/26 08:16:51;;;;;;;17.90;8.02;;;18.20;35.10;;;;;;5035531;28;20437;-78
2022/05/26 08:19:17;;;;;;;22.48;8.65;;;18.70;32.40;;;;;;5034815;28;20387;-79
2022/05/26 08:21:42;;;;;;;16.05;8.20;;;19.00;31.70;;;;;;5037789;28;20383;-78
2022/05/26 08:24:08;;;;;;;16.95;7.72;;;19.20;30.60;;;;;;5039710;28;20430;-78
2022/05/26 08:26:34;;;;;;;13.60;7.38;;;19.50;29.70;;;;;;5039565;28;20386;-78
2022/05/26 08:29:00;;;;;;;14.47;7.30;;;19.60;28.70;;;;;;5038894;28;20394;-79
2022/05/26 08:31:26;;;;;;;15.57;6.90;;;19.50;28.40;;;;;;5038698;28;20399;-80
2022/05/26 08:33:52;;;;;;;17.52;7.43;;;19.40;28.50;;;;;;5045225;28;20383;-79
2022/05/26 08:36:20;;;;;;;15.07;7.53;;;19.20;29.30;;;;;;5042113;28;20383;-77
2022/05/26 08:38:46;;;;;;;16.48;7.35;;;19.20;29.90;;;;;;5036978;28;20402;-78
2022/05/26 08:41:30;;;;;;;15.05;7.30;;;19.40;29.10;;;;;;5035083;28;20419;-78
2022/05/26 08:44:11;;;;;;;18.48;7.15;;;19.60;29.20;;;;;;5032787;28;20387;-77
2022/05/26 08:46:51;;;;;;;15.02;7.55;;;19.90;27.60;;;;;;5033791;28;20387;-78
2022/05/26 08:49:28;;;;;;;18.50;7.20;;;20.00;26.60;;;;;;5034861;28;20397;-78
2022/05/26 08:52:10;;;;;;;12.75;6.10;;;20.00;27.20;;;;;;5036828;28;20477;-77
2022/05/26 08:55:11;;;;;;;16.23;7.03;;;19.90;25.90;;;;;;5036386;28;20458;-79
2022/05/26 08:57:42;;;;;;;13.45;6.40;;;19.80;26.00;;;;;;5033083;28;20401;-77
2022/05/26 09:00:14;;;;;;;12.88;6.43;;;19.90;26.30;;;;;;5033478;28;20379;-77
2022/05/26 09:02:40;;;;;;;17.85;6.85;;;19.90;26.40;;;;;;5033230;28;20379;-78
2022/05/26 09:05:16;;;;;;;17.48;6.60;;;19.90;27.20;;;;;;5032672;28;20402;-77
2022/05/26 09:13:41;;;;;;;12.52;6.18;;;20.20;25.10;;;;;;5033025;28;20428;-77
2022/05/26 09:16:08;;;;;;;15.45;6.15;;;20.30;24.10;;;;;;5031217;28;20402;-78
2022/05/26 09:18:34;;;;;;;13.13;6.00;;;20.20;24.70;;;;;;5032485;28;20741;-77
2022/05/26 09:21:25;;;;;;;10.75;5.72;;;20.20;24.30;;;;;;5032340;28;20391;-77
2022/05/26 09:23:53;;;;;;;10.43;5.53;;;20.30;24.40;;;;;;5031256;28;20387;-76
2022/05/26 09:26:22;;;;;;;15.90;6.60;;;20.10;25.30;;;;;;5032551;28;20390;-77
2022/05/26 09:28:51;;;;;;;11.20;6.00;;;20.10;25.40;;;;;;5032134;28;20398;-78
2022/05/26 09:31:25;;;;;;;16.95;6.15;;;20.00;25.80;;;;;;5031773;28;20403;-77
2022/05/26 09:34:08;;;;;;;15.38;6.20;;;19.70;27.00;;;;;;5032237;28;20383;-77
2022/05/26 09:36:42;;;;;;;16.52;5.53;;;19.50;27.40;;;;;;5031944;28;20380;-77
2022/05/26 09:39:08;;;;;;;10.18;5.53;;;19.70;28.20;;;;;;5033034;28;20410;-77
2022/05/26 09:41:41;;;;;;;12.02;5.60;;;19.90;25.60;;;;;;5032827;28;20478;-77
2022/05/26 09:44:29;;;;;;;13.75;5.15;;;20.20;25.40;;;;;;5033284;28;20878;-77
2022/05/26 09:46:57;;;;;;;11.25;4.25;;;20.50;24.20;;;;;;5034854;28;20383;-76
2022/05/26 09:49:26;;;;;;;10.02;4.80;;;20.70;21.30;;;;;;5039217;28;21040;-77
2022/05/26 09:52:06;;;;;;;9.43;4.07;;;20.70;22.10;;;;;;5035532;28;20800;-76
2022/05/26 09:54:33;;;;;;;12.80;4.57;;;20.70;21.20;;;;;;5031836;28;20414;-76
2022/05/26 09:57:16;;;;;;;6.70;3.47;;;20.90;21.00;;;;;;5032309;28;20379;-78
2022/05/26 09:59:42;;;;;;;8.40;4.10;;;21.30;19.40;;;;;;5036767;28;20895;-77
2022/05/26 10:02:23;;;;;;;9.23;4.18;;;21.40;18.80;;;;;;5043360;28;20394;-78
2022/05/26 10:05:15;;;;;;;12.80;5.03;;;21.40;19.60;;;;;;5038104;28;20817;-77
2022/05/26 10:08:01;;;;;;;11.70;4.65;;;21.40;20.10;;;;;;5038145;28;20390;-78
2022/05/26 10:10:35;;;;;;;13.60;4.70;;;21.30;19.80;;;;;;5038984;28;20414;-77
2022/05/26 10:13:26;;;;;;;11.07;4.23;;;21.40;20.10;;;;;;5040419;28;20418;-79
2022/05/26 10:16:04;;;;;;;11.55;4.30;;;21.30;20.50;;;;;;5039759;28;20379;-78
2022/05/26 10:18:55;;;;;;;9.83;3.90;;;21.20;19.60;;;;;;5038283;28;20382;-78
2022/05/26 10:21:42;;;;;;;10.32;3.90;;;21.10;19.90;;;;;;5037458;28;20910;-78
2022/05/26 10:24:23;;;;;;;13.68;5.28;;;21.00;19.80;;;;;;5039003;28;20428;-78
2022/05/26 10:26:48;;;;;;;10.18;4.60;;;21.10;20.40;;;;;;5038431;28;20383;-78
2022/05/26 10:30:00;;;;;;;12.60;5.00;;;20.90;21.40;;;;;;5039464;28;20390;-78
2022/05/26 10:32:48;;;;;;;8.93;4.18;;;21.00;22.00;;;;;;5039495;28;20422;-79
2022/05/26 10:35:29;;;;;;;11.68;4.70;;;21.30;21.40;;;;;;5040259;28;20379;-77
2022/05/26 10:38:16;;;;;;;8.60;4.38;;;21.40;18.90;;;;;;5038850;28;20378;-77
2022/05/26 10:40:49;;;;;;;10.80;4.60;;;21.40;19.40;;;;;;5036642;28;20379;-77
2022/05/26 10:43:24;;;;;;;7.32;3.80;;;21.30;19.10;;;;;;5038122;28;20426;-78
2022/05/26 10:45:53;;;;;;;10.52;4.18;;;21.00;18.90;;;;;;5038341;28;20402;-77
2022/05/26 10:48:28;;;;;;;10.68;4.22;;;20.70;19.80;;;;;;5038079;28;20387;-78
2022/05/26 10:51:05;;;;;;;11.93;4.27;;;20.50;20.30;;;;;;5037575;28;20391;-78
2022/05/26 10:53:49;;;;;;;9.60;3.90;;;20.50;20.70;;;;;;5037123;28;20898;-77
2022/05/26 10:56:21;;;;;;;9.85;3.50;;;20.80;19.20;;;;;;5037594;28;20383;-77
2022/05/26 10:58:53;;;;;;;5.68;2.70;;;21.10;17.70;;;;;;5037732;28;20478;-78
2022/05/26 11:01:22;;;;;;;9.90;3.20;;;21.30;16.40;;;;;;5037411;28;20409;-78
2022/05/26 11:03:52;;;;;;;9.32;3.50;;;21.20;15.50;;;;;;5038366;28;20387;-78
2022/05/26 11:06:28;;;;;;;9.20;3.80;;;21.20;16.90;;;;;;5037938;28;20383;-77
2022/05/26 11:09:07;;;;;;;13.38;4.30;;;21.30;17.80;;;;;;5037368;28;20395;-77
2022/05/26 11:11:44;;;;;;;10.65;3.10;;;21.20;18.60;;;;;;5037148;28;20403;-77
2022/05/26 11:17:21;;;;;;;8.50;3.40;;;21.00;17.50;;;;;;5036554;28;20379;-78
2022/05/26 11:17:24;;;;;;;6.93;3.60;;;21.00;16.90;;;;;;5035301;28;20405;-76
2022/05/26 11:20:04;;;;;;;9.18;3.50;;;21.00;16.80;;;;;;5035382;28;20421;-77
2022/05/26 11:22:30;;;;;;;7.17;3.20;;;21.20;16.50;;;;;;5037422;28;20387;-78
2022/05/26 11:24:58;;;;;;;7.50;3.40;;;21.40;16.30;;;;;;5036007;28;20445;-76
2022/05/26 11:27:42;;;;;;;6.47;3.10;;;21.60;14.90;;;;;;5036853;28;20477;-78
2022/05/26 11:36:07;;;;;;;11.60;3.50;;;20.70;18.70;;;;;;5035265;28;20482;-78
2022/05/26 11:38:43;;;;;;;7.35;3.25;;;20.80;18.70;;;;;;5036543;28;20386;-77
2022/05/26 11:41:13;;;;;;;10.85;3.35;;;21.10;17.50;;;;;;5034290;28;20437;-79
2022/05/26 11:44:10;;;;;;;13.45;4.40;;;21.60;16.50;;;;;;5034464;28;20379;-78
2022/05/26 11:46:41;;;;;;;8.85;3.30;;;22.10;15.10;;;;;;5035043;28;20866;-76
2022/05/26 11:49:10;;;;;;;7.35;3.25;;;22.30;14.60;;;;;;5034995;28;20451;-78
2022/05/26 11:51:40;;;;;;;9.93;3.38;;;22.50;14.60;;;;;;5036963;28;20464;-78
2022/05/26 11:54:10;;;;;;;11.05;3.80;;;22.50;14.50;;;;;;5038499;28;20914;-79
2022/05/26 11:56:40;;;;;;;10.32;3.70;;;22.10;15.50;;;;;;5041080;28;20747;-78
2022/05/26 11:59:26;;;;;;;13.73;4.07;;;21.90;15.20;;;;;;5034209;28;20391;-78
2022/05/26 12:02:00;;;;;;;11.50;3.70;;;21.70;16.10;;;;;;5034606;28;20530;-78
2022/05/26 12:04:32;;;;;;;11.50;3.63;;;21.50;16.70;;;;;;5034156;28;20383;-76
2022/05/26 12:07:00;;;;;;;7.47;3.42;;;21.70;17.10;;;;;;5033933;28;20383;-78
2022/05/26 12:09:41;;;;;;;8.87;3.70;;;22.00;15.80;;;;;;5033756;28;20390;-78
2022/05/26 12:12:16;;;;;;;17.35;4.50;;;22.00;15.40;;;;;;5033716;28;20418;-77
2022/05/26 12:14:47;;;;;;;6.43;3.60;;;22.00;15.60;;;;;;5034340;28;20437;-78
2022/05/26 12:17:36;;;;;;;10.52;3.85;;;21.90;15.90;;;;;;5034109;28;20418;-77
2022/05/26 12:20:11;;;;;;;11.03;3.97;;;22.00;15.40;;;;;;5034688;28;20399;-77
2022/05/26 12:22:52;;;;;;;9.48;3.67;;;22.00;15.40;;;;;;5033877;28;20391;-77
2022/05/26 12:25:39;;;;;;;11.00;4.10;;;21.80;15.50;;;;;;5041221;28;20391;-79
2022/05/26 12:28:10;;;;;;;8.00;3.58;;;22.00;15.60;;;;;;5039415;28;20391;-79
2022/05/26 12:30:42;;;;;;;10.40;3.40;;;22.50;13.80;;;;;;5039451;28;20387;-78
2022/05/26 12:33:21;;;;;;;6.53;3.50;;;23.10;13.30;;;;;;5033107;28;20415;-78
2022/05/26 12:36:14;;;;;;;10.77;4.13;;;23.60;12.90;;;;;;5033613;28;20387;-78
2022/05/26 12:39:14;;;;;;;6.47;3.03;;;24.00;12.30;;;;;;5033618;28;20379;-76
2022/05/26 12:41:52;;;;;;;9.13;3.28;;;24.10;11.90;;;;;;5032364;28;20388;-77
2022/05/26 12:44:38;;;;;;;8.35;3.63;;;23.90;11.70;;;;;;5032886;28;20383;-77
2022/05/26 12:47:38;;;;;;;9.95;4.10;;;23.50;12.90;;;;;;5032986;28;20394;-77
2022/05/26 12:50:18;;;;;;;7.70;3.80;;;23.10;13.30;;;;;;5032762;28;20398;-78
2022/05/26 12:52:56;;;;;;;5.55;3.15;;;23.40;13.20;;;;;;5032626;28;20403;-77
2022/05/26 12:55:21;;;;;;;8.30;3.10;;;23.50;12.80;;;;;;5037111;28;20403;-79
2022/05/26 12:57:52;;;;;;;6.47;3.00;;;23.50;11.70;;;;;;5038363;28;20453;-79
2022/05/26 13:00:37;;;;;;;7.85;3.20;;;23.50;11.70;;;;;;5044828;28;20744;-80
2022/05/26 13:03:07;;;;;;;9.23;3.97;;;23.70;12.60;;;;;;5040470;28;20422;-78
2022/05/26 13:05:37;;;;;;;12.00;3.60;;;23.80;13.50;;;;;;5040128;28;20411;-77
2022/05/26 13:08:04;;;;;;;9.13;2.93;;;23.80;13.60;;;;;;5041541;28;20386;-77
2022/05/26 13:10:40;;;;;;;5.82;3.28;;;24.00;12.50;;;;;;5050686;28;20376;-78
2022/05/26 13:13:24;;;;;;;7.22;3.30;;;24.20;11.90;;;;;;5050472;28;20399;-77
2022/05/26 13:15:50;;;;;;;7.27;3.10;;;23.90;12.40;;;;;;5046865;28;20387;-79
2022/05/26 13:18:25;;;;;;;7.10;3.10;;;24.30;12.60;;;;;;5046116;28;20387;-77
2022/05/26 13:20:51;;;;;;;7.90;3.20;;;24.70;11.40;;;;;;5047912;28;20432;-78
2022/05/26 13:23:31;;;;;;;7.60;3.40;;;24.90;10.00;;;;;;5048932;28;20872;-80
2022/05/26 13:25:59;;;;;;;6.70;3.40;;;24.80;9.60;;;;;;5048290;28;20382;-80
2022/05/26 13:28:31;;;;;;;10.20;3.30;;;24.40;10.80;;;;;;5046515;28;20472;-79
2022/05/26 13:33:48;;;;;;;5.50;2.78;;;25.20;8.40;;;;;;5040131;28;20386;-78
2022/05/26 13:36:41;;;;;;;5.68;2.90;;;25.30;7.90;;;;;;5037949;28;20387;-78
2022/05/26 13:39:14;;;;;;;9.30;3.60;;;25.10;8.20;;;;;;5037956;28;20398;-79
2022/05/26 13:41:42;;;;;;;5.97;3.00;;;24.90;9.50;;;;;;5038786;28;20386;-77
2022/05/26 13:44:11;;;;;;;5.82;2.90;;;24.40;9.40;;;;;;5038725;28;20395;-78
2022/05/26 13:46:46;;;;;;;5.25;2.45;;;23.80;10.60;;;;;;5040913;28;20386;-79